createdAt,value
2018-12-17T00:11:25.246Z,18.34
2018-12-17T00:17:20.234Z,17.66
2018-12-17T00:23:15.236Z,14.72
2018-12-17T00:29:10.212Z,14.03
2018-12-17T00:35:05.244Z,15.62
2018-12-17T00:41:00.284Z,16.11
2018-12-17T00:46:55.252Z,13.91
2018-12-17T00:52:50.236Z,13.27
2018-12-17T00:58:45.286Z,16.17
2018-12-17T01:04:40.259Z,12.67
2018-12-17T01:10:35.271Z,14.7
2018-12-17T01:16:30.260Z,12.73
2018-12-17T01:22:25.270Z,15.71
2018-12-17T01:28:22.223Z,17.03
2018-12-17T01:34:15.274Z,16.36
2018-12-17T01:40:10.303Z,11.79
2018-12-17T01:46:05.287Z,15.62
2018-12-17T01:52:00.309Z,13.25
2018-12-17T01:57:55.294Z,16.04
2018-12-17T02:03:50.284Z,17.69
2018-12-17T02:09:45.281Z,15.36
2018-12-17T02:15:40.285Z,17.58
2018-12-17T02:21:35.306Z,13.22
2018-12-17T02:27:30.291Z,13.47
2018-12-17T02:33:25.287Z,14.3
2018-12-17T02:39:20.311Z,13.45
2018-12-17T02:45:15.313Z,16.41
2018-12-17T02:51:10.398Z,14.91
2018-12-17T02:57:05.324Z,11.89
2018-12-17T03:03:00.307Z,15.08
2018-12-17T03:08:55.325Z,14.4
2018-12-17T03:14:50.354Z,12.49
2018-12-17T03:20:45.325Z,15.42
2018-12-17T03:26:40.334Z,15.43
2018-12-17T03:32:35.333Z,13.16
2018-12-17T03:38:30.319Z,15.68
2018-12-17T03:44:25.374Z,12.05
2018-12-17T03:50:20.379Z,12.94
2018-12-17T03:56:15.348Z,10.82
2018-12-17T04:02:10.344Z,5.69
2018-12-17T04:08:05.381Z,8.97
2018-12-17T04:14:00.361Z,6.69
2018-12-17T04:19:55.352Z,5.41
2018-12-17T04:25:50.352Z,4.16
2018-12-17T04:31:45.431Z,2.51
2018-12-17T04:37:40.419Z,2.06
2018-12-17T04:43:35.353Z,1.6
2018-12-17T04:49:30.401Z,1.36
2018-12-17T04:55:25.365Z,1.57
2018-12-17T05:01:20.365Z,1.37
2018-12-17T05:07:15.409Z,1.34
2018-12-17T05:13:10.387Z,1.38
2018-12-17T05:19:05.388Z,1.71
2018-12-17T05:25:00.374Z,1.07
2018-12-17T05:30:55.401Z,1.08
2018-12-17T05:36:50.429Z,0.7
2018-12-17T05:42:45.437Z,0.63
2018-12-17T05:48:40.392Z,0.59
2018-12-17T05:54:35.398Z,0.68
2018-12-17T06:00:30.420Z,1.95
2018-12-17T06:06:25.426Z,1.19
2018-12-17T06:12:20.435Z,0.93
2018-12-17T06:18:15.423Z,0.93
2018-12-17T06:24:10.491Z,0.94
2018-12-17T06:30:05.473Z,0.93
2018-12-17T06:36:00.438Z,0.81
2018-12-17T06:41:55.429Z,0.98
2018-12-17T06:47:50.434Z,0.72
2018-12-17T06:53:45.437Z,0.77
2018-12-17T06:59:42.761Z,0.94
2018-12-17T07:05:35.518Z,0.76
2018-12-17T07:11:30.449Z,0.67
2018-12-17T07:17:25.455Z,0.74
2018-12-17T07:23:20.480Z,0.65
2018-12-17T07:29:15.479Z,1.12
2018-12-17T07:35:10.496Z,1.05
2018-12-17T07:41:05.458Z,0.86
2018-12-17T07:47:00.501Z,0.87
2018-12-17T07:52:55.452Z,1.6
2018-12-17T07:58:50.464Z,0.89
2018-12-17T08:04:45.470Z,1.09
2018-12-17T08:10:40.471Z,1.07
2018-12-17T08:16:35.476Z,3.41
2018-12-17T08:22:30.482Z,0.6
2018-12-17T08:28:25.494Z,0.72
2018-12-17T08:34:20.505Z,0.67
2018-12-17T08:40:15.514Z,0.67
2018-12-17T08:46:10.526Z,0.56
2018-12-17T08:52:05.628Z,0.71
2018-12-17T08:58:00.515Z,0.84
2018-12-17T09:03:55.510Z,3.04
2018-12-17T09:09:50.543Z,0.76
2018-12-17T09:15:45.515Z,1.95
2018-12-17T09:21:40.515Z,3.2
2018-12-17T09:27:35.533Z,1.34
2018-12-17T09:33:30.558Z,3.49
2018-12-17T09:39:25.523Z,3.25
2018-12-17T09:45:20.535Z,2.21
2018-12-17T09:51:19.415Z,1.17
2018-12-17T09:57:10.540Z,0.83
2018-12-17T10:03:05.561Z,0.79
2018-12-17T10:09:01.181Z,4.85
2018-12-17T10:14:55.545Z,3.84
2018-12-17T10:20:50.570Z,3.83
2018-12-17T10:26:45.583Z,2.4
2018-12-17T10:32:40.585Z,7
2018-12-17T10:38:35.567Z,5.32
2018-12-17T10:44:30.571Z,3.47
2018-12-17T10:50:25.633Z,5.75
2018-12-17T10:56:20.602Z,3.85
2018-12-17T11:02:15.584Z,3.8
2018-12-17T11:08:10.586Z,8.21
2018-12-17T11:14:05.598Z,5.36
2018-12-17T11:20:00.671Z,5.32
2018-12-17T11:25:55.612Z,3.11
2018-12-17T11:31:50.624Z,4.78
2018-12-17T11:37:45.605Z,2.52
2018-12-17T11:43:43.730Z,2.8
2018-12-17T11:49:35.599Z,1.59
2018-12-17T11:55:30.653Z,3.62
2018-12-17T12:01:25.624Z,2.83
2018-12-17T12:07:20.648Z,4.48
2018-12-17T12:13:15.644Z,2.14
2018-12-17T12:19:10.633Z,5.06
2018-12-17T12:25:05.628Z,2.43
2018-12-17T12:31:00.807Z,1.82
2018-12-17T12:36:55.678Z,37.62
2018-12-17T12:42:51.697Z,12.74
2018-12-17T12:48:45.657Z,2.51
2018-12-17T12:54:40.662Z,4.92
2018-12-17T13:00:35.627Z,5.9
2018-12-17T13:06:30.648Z,5.05
2018-12-17T13:12:25.655Z,2.79
2018-12-17T13:18:20.662Z,33.41
2018-12-17T13:24:15.660Z,3.99
2018-12-17T13:30:10.716Z,5.55
2018-12-17T13:36:05.672Z,5.42
2018-12-17T13:42:00.674Z,13.87
2018-12-17T13:47:55.668Z,2.87
2018-12-17T13:53:50.718Z,8.49
2018-12-17T13:59:45.723Z,5.97
2018-12-17T14:05:40.669Z,5.48
2018-12-17T14:11:35.684Z,4.71
2018-12-17T14:17:30.681Z,8.56
2018-12-17T14:23:25.694Z,3.28
2018-12-17T14:29:20.698Z,6.46
2018-12-17T14:35:15.724Z,2.81
2018-12-17T14:41:10.715Z,10.51
2018-12-17T14:47:05.708Z,5.34
2018-12-17T14:53:00.732Z,5.55
2018-12-17T14:58:55.705Z,6.07
2018-12-17T15:04:50.738Z,5.62
2018-12-17T15:10:45.744Z,3.71
2018-12-17T15:16:40.762Z,5.8
2018-12-17T15:22:35.738Z,11.9
2018-12-17T15:28:30.781Z,9.27
2018-12-17T15:34:25.781Z,8.62
2018-12-17T15:40:20.736Z,9.47
2018-12-17T15:46:15.737Z,7.68
2018-12-17T15:52:10.748Z,16.71
2018-12-17T15:58:05.743Z,14.85
2018-12-17T16:04:00.748Z,5.6
2018-12-17T16:09:55.744Z,4.82
2018-12-17T16:15:50.753Z,7.47
2018-12-17T16:21:45.806Z,6.59
2018-12-17T16:27:40.835Z,10.57
2018-12-17T16:33:35.764Z,7.64
2018-12-17T16:39:31.208Z,5.04
2018-12-17T16:45:25.795Z,8.55
2018-12-17T16:51:20.777Z,8.96
2018-12-17T16:57:15.788Z,9.81
2018-12-17T17:03:10.803Z,10.01
2018-12-17T17:09:05.810Z,5.59
2018-12-17T17:15:00.794Z,11.77
2018-12-17T17:20:55.807Z,10.01
2018-12-17T17:26:50.789Z,15.28
2018-12-17T17:32:45.814Z,10.94
2018-12-17T17:38:40.793Z,12.24
2018-12-17T17:44:35.793Z,11.19
2018-12-17T17:50:30.831Z,7.19
2018-12-17T17:56:25.819Z,14.18
2018-12-17T18:02:20.855Z,11.28
2018-12-17T18:08:15.815Z,11.96
2018-12-17T18:14:10.830Z,14.5
2018-12-17T18:20:05.850Z,15.11
2018-12-17T18:26:00.832Z,18.95
2018-12-17T18:31:55.850Z,15.57
2018-12-17T18:37:50.840Z,6.45
2018-12-17T18:43:45.859Z,8.84
2018-12-17T18:49:40.837Z,7.07
2018-12-17T18:55:35.875Z,9.97
2018-12-17T19:01:30.854Z,8.52
2018-12-17T19:07:25.856Z,9.24
2018-12-17T19:13:20.857Z,14.57
2018-12-17T19:19:15.852Z,11.57
2018-12-17T19:25:10.916Z,16.07
2018-12-17T19:31:05.887Z,10.24
2018-12-17T19:37:00.876Z,12.95
2018-12-17T19:42:55.865Z,13.45
2018-12-17T19:48:50.898Z,16.85
2018-12-17T19:54:45.925Z,16.44
2018-12-17T20:00:40.889Z,14.24
2018-12-17T20:06:35.889Z,18.95
2018-12-17T20:12:30.890Z,17.42
2018-12-17T20:18:25.914Z,15.7
2018-12-17T20:24:20.881Z,13.85
2018-12-17T20:30:15.893Z,14.8
2018-12-17T20:36:10.966Z,18.36
2018-12-17T20:42:05.910Z,13.85
2018-12-17T20:48:00.928Z,17.15
2018-12-17T20:53:55.919Z,15.53
2018-12-17T20:59:50.909Z,12.75
2018-12-17T21:05:45.906Z,18.48
2018-12-17T21:11:40.948Z,18.26
2018-12-17T21:17:35.924Z,19.44
2018-12-17T21:23:30.923Z,22.97
2018-12-17T21:29:25.927Z,39.75
2018-12-17T21:35:20.945Z,26.35
2018-12-17T21:41:15.977Z,27.62
2018-12-17T21:47:10.933Z,17.9
2018-12-17T21:53:05.951Z,17.72
2018-12-17T21:59:01.040Z,14.48
2018-12-17T22:04:55.948Z,20.63
2018-12-17T22:10:51.003Z,17.04
2018-12-17T22:16:45.950Z,15.87
2018-12-17T22:22:40.997Z,19.67
2018-12-17T22:28:35.966Z,17.8
2018-12-17T22:34:30.971Z,25.11
2018-12-17T22:40:25.968Z,37.08
2018-12-17T22:46:21.003Z,29.93
2018-12-17T22:52:15.985Z,29.83
2018-12-17T22:58:10.977Z,26.86
2018-12-17T23:04:05.996Z,25.73
2018-12-17T23:10:00.968Z,22.52
2018-12-17T23:15:55.987Z,20.03
2018-12-17T23:21:51.008Z,20.56
2018-12-17T23:27:46.008Z,20.91
2018-12-17T23:33:41.006Z,22.99
2018-12-17T23:39:36.040Z,20.6
2018-12-17T23:45:31.025Z,20.05
2018-12-17T23:51:26.049Z,22.97
2018-12-17T23:57:21.030Z,23.29
